sensor_id;sensor_type;location;lat;lon;timestamp;pressure;altitude;pressure_sealevel;temperature;humidity
7157;BME280;3620;49.862;8.758;2022-07-23T00:01:49;99153.25;;;25.78;61.51
7157;BME280;3620;49.862;8.758;2022-07-23T00:04:16;99158.31;;;25.81;61.92
7157;BME280;3620;49.862;8.758;2022-07-23T00:06:42;99158.00;;;25.84;61.78
7157;BME280;3620;49.862;8.758;2022-07-23T00:09:10;99169.78;;;25.75;61.64
7157;BME280;3620;49.862;8.758;2022-07-23T00:11:37;99170.44;;;25.69;61.40
7157;BME280;3620;49.862;8.758;2022-07-23T00:14:04;99180.84;;;25.56;62.29
7157;BME280;3620;49.862;8.758;2022-07-23T00:16:30;99191.28;;;25.43;62.54
7157;BME280;3620;49.862;8.758;2022-07-23T00:18:57;99184.19;;;25.42;62.96
7157;BME280;3620;49.862;8.758;2022-07-23T00:21:26;99189.56;;;25.42;62.77
7157;BME280;3620;49.862;8.758;2022-07-23T00:23:53;99190.88;;;25.38;62.97
7157;BME280;3620;49.862;8.758;2022-07-23T00:26:21;99194.25;;;25.32;63.64
7157;BME280;3620;49.862;8.758;2022-07-23T00:28:48;99196.75;;;25.25;63.75
7157;BME280;3620;49.862;8.758;2022-07-23T00:31:14;99205.50;;;25.27;63.60
7157;BME280;3620;49.862;8.758;2022-07-23T00:33:41;99195.41;;;25.29;63.33
7157;BME280;3620;49.862;8.758;2022-07-23T00:36:08;99190.50;;;25.25;63.41
7157;BME280;3620;49.862;8.758;2022-07-23T00:38:35;99177.09;;;25.33;63.43
7157;BME280;3620;49.862;8.758;2022-07-23T00:41:02;99162.94;;;25.31;63.25
7157;BME280;3620;49.862;8.758;2022-07-23T00:43:30;99158.88;;;25.27;63.93
7157;BME280;3620;49.862;8.758;2022-07-23T00:45:56;99137.00;;;25.30;64.01
7157;BME280;3620;49.862;8.758;2022-07-23T00:48:23;99121.50;;;25.40;64.05
7157;BME280;3620;49.862;8.758;2022-07-23T00:50:50;99124.03;;;25.33;63.91
7157;BME280;3620;49.862;8.758;2022-07-23T00:53:17;99121.69;;;25.30;64.22
7157;BME280;3620;49.862;8.758;2022-07-23T00:55:43;99123.53;;;25.22;63.90
7157;BME280;3620;49.862;8.758;2022-07-23T00:58:13;99132.91;;;25.18;63.63
7157;BME280;3620;49.862;8.758;2022-07-23T01:00:42;99150.66;;;24.87;64.86
7157;BME280;3620;49.862;8.758;2022-07-23T01:03:10;99163.94;;;24.62;66.13
7157;BME280;3620;49.862;8.758;2022-07-23T01:05:37;99166.59;;;24.54;67.02
7157;BME280;3620;49.862;8.758;2022-07-23T01:08:05;99162.47;;;24.42;67.64
7157;BME280;3620;49.862;8.758;2022-07-23T01:10:32;99176.56;;;24.36;68.65
7157;BME280;3620;49.862;8.758;2022-07-23T01:12:59;99183.47;;;24.39;68.06
7157;BME280;3620;49.862;8.758;2022-07-23T01:15:27;99195.19;;;24.30;68.54
7157;BME280;3620;49.862;8.758;2022-07-23T01:17:55;99199.50;;;24.23;69.55
7157;BME280;3620;49.862;8.758;2022-07-23T01:20:22;99206.25;;;24.27;69.45
7157;BME280;3620;49.862;8.758;2022-07-23T01:22:51;99204.28;;;24.29;69.44
7157;BME280;3620;49.862;8.758;2022-07-23T01:25:18;99206.25;;;24.27;70.49
7157;BME280;3620;49.862;8.758;2022-07-23T01:27:45;99207.94;;;24.28;70.87
7157;BME280;3620;49.862;8.758;2022-07-23T01:30:12;99196.38;;;24.10;71.79
7157;BME280;3620;49.862;8.758;2022-07-23T01:32:39;99195.00;;;24.06;72.38
7157;BME280;3620;49.862;8.758;2022-07-23T01:35:07;99194.44;;;24.02;72.49
7157;BME280;3620;49.862;8.758;2022-07-23T01:37:34;99195.13;;;24.04;73.29
7157;BME280;3620;49.862;8.758;2022-07-23T01:40:05;99172.00;;;24.11;73.77
7157;BME280;3620;49.862;8.758;2022-07-23T01:42:32;99162.50;;;24.17;74.77
7157;BME280;3620;49.862;8.758;2022-07-23T01:44:59;99168.38;;;24.20;74.15
7157;BME280;3620;49.862;8.758;2022-07-23T01:47:25;99179.47;;;24.17;72.96
7157;BME280;3620;49.862;8.758;2022-07-23T01:49:52;99171.53;;;24.16;74.21
7157;BME280;3620;49.862;8.758;2022-07-23T01:52:19;99166.34;;;24.14;73.17
7157;BME280;3620;49.862;8.758;2022-07-23T01:54:45;99171.53;;;24.16;73.04
7157;BME280;3620;49.862;8.758;2022-07-23T01:57:14;99180.94;;;23.76;74.36
7157;BME280;3620;49.862;8.758;2022-07-23T01:59:40;99186.06;;;23.70;74.53
7157;BME280;3620;49.862;8.758;2022-07-23T02:02:07;99184.84;;;23.82;75.04
7157;BME280;3620;49.862;8.758;2022-07-23T02:04:34;99175.47;;;23.86;74.75
7157;BME280;3620;49.862;8.758;2022-07-23T02:07:02;99172.13;;;23.84;73.65
7157;BME280;3620;49.862;8.758;2022-07-23T02:09:29;99169.66;;;23.73;73.31
7157;BME280;3620;49.862;8.758;2022-07-23T02:11:55;99180.94;;;23.59;74.07
7157;BME280;3620;49.862;8.758;2022-07-23T02:14:24;99198.75;;;23.60;74.27
7157;BME280;3620;49.862;8.758;2022-07-23T02:16:51;99212.47;;;23.57;75.63
7157;BME280;3620;49.862;8.758;2022-07-23T02:19:17;99199.22;;;23.55;75.17
7157;BME280;3620;49.862;8.758;2022-07-23T02:21:44;99191.91;;;23.48;75.48
7157;BME280;3620;49.862;8.758;2022-07-23T02:24:11;99189.66;;;23.43;75.73
7157;BME280;3620;49.862;8.758;2022-07-23T02:26:37;99198.50;;;23.53;75.45
7157;BME280;3620;49.862;8.758;2022-07-23T02:29:04;99218.53;;;23.59;75.96
7157;BME280;3620;49.862;8.758;2022-07-23T02:31:33;99200.34;;;23.53;76.37
7157;BME280;3620;49.862;8.758;2022-07-23T02:34:00;99198.34;;;23.55;77.05
7157;BME280;3620;49.862;8.758;2022-07-23T02:36:27;99203.00;;;23.35;77.40
7157;BME280;3620;49.862;8.758;2022-07-23T02:38:53;99195.56;;;23.47;77.17
7157;BME280;3620;49.862;8.758;2022-07-23T02:41:20;99184.00;;;23.46;77.04
7157;BME280;3620;49.862;8.758;2022-07-23T02:43:47;99184.91;;;23.37;76.73
7157;BME280;3620;49.862;8.758;2022-07-23T02:46:14;99185.94;;;23.26;77.34
7157;BME280;3620;49.862;8.758;2022-07-23T02:48:42;99198.81;;;23.23;78.17
7157;BME280;3620;49.862;8.758;2022-07-23T02:51:08;99204.72;;;23.26;78.11
7157;BME280;3620;49.862;8.758;2022-07-23T02:53:35;99202.03;;;23.26;78.12
7157;BME280;3620;49.862;8.758;2022-07-23T02:56:02;99203.94;;;23.16;78.65
7157;BME280;3620;49.862;8.758;2022-07-23T02:58:29;99190.41;;;23.08;79.89
7157;BME280;3620;49.862;8.758;2022-07-23T03:00:56;99168.34;;;23.14;80.45
7157;BME280;3620;49.862;8.758;2022-07-23T03:03:22;99166.63;;;23.13;81.41
7157;BME280;3620;49.862;8.758;2022-07-23T03:05:50;99202.25;;;23.15;82.14
7157;BME280;3620;49.862;8.758;2022-07-23T03:08:17;99209.66;;;23.04;82.16
7157;BME280;3620;49.862;8.758;2022-07-23T03:10:44;99207.53;;;22.98;82.21
7157;BME280;3620;49.862;8.758;2022-07-23T03:13:10;99201.78;;;22.93;83.28
7157;BME280;3620;49.862;8.758;2022-07-23T03:15:37;99206.03;;;22.95;82.35
7157;BME280;3620;49.862;8.758;2022-07-23T03:18:04;99203.63;;;22.92;82.32
7157;BME280;3620;49.862;8.758;2022-07-23T03:20:31;99208.28;;;22.90;81.22
7157;BME280;3620;49.862;8.758;2022-07-23T03:22:59;99200.94;;;22.92;80.80
7157;BME280;3620;49.862;8.758;2022-07-23T03:25:25;99201.81;;;22.83;81.68
7157;BME280;3620;49.862;8.758;2022-07-23T03:27:52;99193.06;;;22.81;82.17
7157;BME280;3620;49.862;8.758;2022-07-23T03:30:19;99213.09;;;22.87;82.96
7157;BME280;3620;49.862;8.758;2022-07-23T03:32:45;99232.53;;;22.98;83.15
7157;BME280;3620;49.862;8.758;2022-07-23T03:35:12;99258.81;;;23.04;83.37
7157;BME280;3620;49.862;8.758;2022-07-23T03:37:39;99252.03;;;23.00;83.59
7157;BME280;3620;49.862;8.758;2022-07-23T03:40:08;99242.72;;;23.04;83.52
7157;BME280;3620;49.862;8.758;2022-07-23T03:42:34;99242.72;;;23.04;82.93
7157;BME280;3620;49.862;8.758;2022-07-23T03:45:03;99230.25;;;23.03;82.93
7157;BME280;3620;49.862;8.758;2022-07-23T03:47:30;99242.38;;;23.07;82.39
7157;BME280;3620;49.862;8.758;2022-07-23T03:49:56;99256.81;;;23.06;80.83
7157;BME280;3620;49.862;8.758;2022-07-23T03:52:23;99255.72;;;22.99;80.00
7157;BME280;3620;49.862;8.758;2022-07-23T03:54:50;99250.75;;;23.04;79.39
7157;BME280;3620;49.862;8.758;2022-07-23T03:57:18;99266.81;;;22.77;80.41
7157;BME280;3620;49.862;8.758;2022-07-23T03:59:44;99263.69;;;22.72;81.25
7157;BME280;3620;49.862;8.758;2022-07-23T04:02:11;99268.63;;;22.86;80.58
7157;BME280;3620;49.862;8.758;2022-07-23T04:04:38;99261.97;;;22.90;80.07
7157;BME280;3620;49.862;8.758;2022-07-23T04:07:05;99270.97;;;22.89;81.39
7157;BME280;3620;49.862;8.758;2022-07-23T04:09:33;99257.19;;;22.84;81.83
7157;BME280;3620;49.862;8.758;2022-07-23T04:12:00;99248.41;;;22.82;82.54
7157;BME280;3620;49.862;8.758;2022-07-23T04:14:28;99248.13;;;22.85;83.39
7157;BME280;3620;49.862;8.758;2022-07-23T04:16:55;99247.28;;;22.85;83.30
7157;BME280;3620;49.862;8.758;2022-07-23T04:19:22;99252.09;;;22.81;82.78
7157;BME280;3620;49.862;8.758;2022-07-23T04:21:48;99258.75;;;22.77;82.99
7157;BME280;3620;49.862;8.758;2022-07-23T04:24:15;99256.59;;;22.90;83.06
7157;BME280;3620;49.862;8.758;2022-07-23T04:26:42;99265.22;;;22.84;82.20
7157;BME280;3620;49.862;8.758;2022-07-23T04:29:09;99267.91;;;22.84;81.91
7157;BME280;3620;49.862;8.758;2022-07-23T04:31:37;99280.47;;;22.84;82.56
7157;BME280;3620;49.862;8.758;2022-07-23T04:34:03;99278.66;;;22.84;82.88
7157;BME280;3620;49.862;8.758;2022-07-23T04:36:30;99284.28;;;22.81;82.22
7157;BME280;3620;49.862;8.758;2022-07-23T04:38:57;99280.38;;;22.66;82.13
7157;BME280;3620;49.862;8.758;2022-07-23T04:41:23;99280.66;;;22.63;82.58
7157;BME280;3620;49.862;8.758;2022-07-23T04:43:50;99291.38;;;22.73;81.00
7157;BME280;3620;49.862;8.758;2022-07-23T04:46:18;99289.41;;;22.65;81.77
7157;BME280;3620;49.862;8.758;2022-07-23T04:48:46;99299.56;;;22.52;82.96
7157;BME280;3620;49.862;8.758;2022-07-23T04:51:12;99312.25;;;22.50;82.99
7157;BME280;3620;49.862;8.758;2022-07-23T04:53:39;99317.50;;;22.61;82.52
7157;BME280;3620;49.862;8.758;2022-07-23T04:56:06;99321.75;;;22.73;82.40
7157;BME280;3620;49.862;8.758;2022-07-23T04:58:33;99329.47;;;22.76;82.11
7157;BME280;3620;49.862;8.758;2022-07-23T05:01:00;99327.50;;;22.78;81.17
7157;BME280;3620;49.862;8.758;2022-07-23T05:03:27;99326.09;;;22.74;80.81
7157;BME280;3620;49.862;8.758;2022-07-23T05:05:55;99317.34;;;22.72;80.98
7157;BME280;3620;49.862;8.758;2022-07-23T05:08:22;99323.28;;;22.66;81.28
7157;BME280;3620;49.862;8.758;2022-07-23T05:10:49;99324.69;;;22.51;82.21
7157;BME280;3620;49.862;8.758;2022-07-23T05:13:16;99328.09;;;22.53;82.74
7157;BME280;3620;49.862;8.758;2022-07-23T05:15:43;99329.47;;;22.57;83.32
7157;BME280;3620;49.862;8.758;2022-07-23T05:18:10;99334.56;;;22.60;83.57
7157;BME280;3620;49.862;8.758;2022-07-23T05:20:38;99334.16;;;22.55;83.60
7157;BME280;3620;49.862;8.758;2022-07-23T05:23:06;99321.44;;;22.57;82.97
7157;BME280;3620;49.862;8.758;2022-07-23T05:25:33;99327.78;;;22.56;82.84
7157;BME280;3620;49.862;8.758;2022-07-23T05:28:00;99330.06;;;22.51;83.45
7157;BME280;3620;49.862;8.758;2022-07-23T05:30:27;99326.66;;;22.49;83.48
7157;BME280;3620;49.862;8.758;2022-07-23T05:32:53;99330.34;;;22.48;83.42
7157;BME280;3620;49.862;8.758;2022-07-23T05:35:20;99331.19;;;22.48;83.22
7157;BME280;3620;49.862;8.758;2022-07-23T05:37:47;99334.56;;;22.41;83.60
7157;BME280;3620;49.862;8.758;2022-07-23T05:40:15;99337.38;;;22.49;83.27
7157;BME280;3620;49.862;8.758;2022-07-23T05:42:42;99329.22;;;22.50;82.82
7157;BME280;3620;49.862;8.758;2022-07-23T05:45:09;99335.00;;;22.46;83.03
7157;BME280;3620;49.862;8.758;2022-07-23T05:47:41;99343.91;;;22.46;83.78
7157;BME280;3620;49.862;8.758;2022-07-23T05:50:08;99349.81;;;22.50;83.26
7157;BME280;3620;49.862;8.758;2022-07-23T05:52:35;99355.44;;;22.56;84.14
7157;BME280;3620;49.862;8.758;2022-07-23T05:55:02;99361.66;;;22.57;84.10
7157;BME280;3620;49.862;8.758;2022-07-23T05:57:30;99369.75;;;22.67;83.17
7157;BME280;3620;49.862;8.758;2022-07-23T05:59:57;99369.59;;;22.68;82.70
7157;BME280;3620;49.862;8.758;2022-07-23T06:02:24;99370.03;;;22.73;82.44
7157;BME280;3620;49.862;8.758;2022-07-23T06:04:50;99381.44;;;22.75;82.56
7157;BME280;3620;49.862;8.758;2022-07-23T06:07:17;99376.63;;;22.88;82.26
7157;BME280;3620;49.862;8.758;2022-07-23T06:09:44;99376.06;;;22.94;80.36
7157;BME280;3620;49.862;8.758;2022-07-23T06:12:15;99369.81;;;23.03;79.27
7157;BME280;3620;49.862;8.758;2022-07-23T06:14:43;99373.78;;;22.99;78.50
7157;BME280;3620;49.862;8.758;2022-07-23T06:17:10;99371.22;;;23.07;78.55
7157;BME280;3620;49.862;8.758;2022-07-23T06:19:37;99360.81;;;22.85;79.43
7157;BME280;3620;49.862;8.758;2022-07-23T06:22:03;99362.09;;;22.81;80.35
7157;BME280;3620;49.862;8.758;2022-07-23T06:24:30;99359.13;;;22.84;79.01
7157;BME280;3620;49.862;8.758;2022-07-23T06:26:56;99358.81;;;22.87;79.74
7157;BME280;3620;49.862;8.758;2022-07-23T06:29:23;99346.09;;;22.89;80.56
7157;BME280;3620;49.862;8.758;2022-07-23T06:31:51;99339.88;;;22.98;80.07
7157;BME280;3620;49.862;8.758;2022-07-23T06:34:18;99339.00;;;23.07;79.70
7157;BME280;3620;49.862;8.758;2022-07-23T06:36:45;99348.06;;;23.06;79.28
7157;BME280;3620;49.862;8.758;2022-07-23T06:39:12;99340.56;;;23.00;79.16
7157;BME280;3620;49.862;8.758;2022-07-23T06:41:39;99334.84;;;22.86;79.30
7157;BME280;3620;49.862;8.758;2022-07-23T06:44:05;99343.03;;;22.84;80.43
7157;BME280;3620;49.862;8.758;2022-07-23T06:46:32;99350.94;;;22.86;81.03
7157;BME280;3620;49.862;8.758;2022-07-23T06:49:00;99356.16;;;22.87;81.21
7157;BME280;3620;49.862;8.758;2022-07-23T06:51:27;99359.13;;;22.84;79.65
7157;BME280;3620;49.862;8.758;2022-07-23T06:53:53;99365.63;;;22.72;79.50
7157;BME280;3620;49.862;8.758;2022-07-23T06:56:20;99359.44;;;22.62;80.77
7157;BME280;3620;49.862;8.758;2022-07-23T06:58:47;99359.84;;;22.67;80.29
7157;BME280;3620;49.862;8.758;2022-07-23T07:01:13;99371.00;;;22.72;80.80
7157;BME280;3620;49.862;8.758;2022-07-23T07:03:40;99380.03;;;22.71;80.45
7157;BME280;3620;49.862;8.758;2022-07-23T07:06:09;99375.09;;;22.76;81.73
7157;BME280;3620;49.862;8.758;2022-07-23T07:08:36;99380.19;;;22.79;81.65
7157;BME280;3620;49.862;8.758;2022-07-23T07:11:03;99380.03;;;22.81;78.18
7157;BME280;3620;49.862;8.758;2022-07-23T07:13:29;99378.34;;;22.80;79.54
7157;BME280;3620;49.862;8.758;2022-07-23T07:15:56;99382.59;;;22.73;79.72
7157;BME280;3620;49.862;8.758;2022-07-23T07:18:23;99382.25;;;22.47;79.43
7157;BME280;3620;49.862;8.758;2022-07-23T07:20:49;99385.78;;;22.38;80.06
7157;BME280;3620;49.862;8.758;2022-07-23T07:23:17;99390.72;;;22.33;80.27
7157;BME280;3620;49.862;8.758;2022-07-23T07:25:45;99406.81;;;22.52;79.78
7157;BME280;3620;49.862;8.758;2022-07-23T07:28:12;99397.81;;;22.63;79.53
7157;BME280;3620;49.862;8.758;2022-07-23T07:30:39;99394.31;;;22.62;79.38
7157;BME280;3620;49.862;8.758;2022-07-23T07:33:06;99400.94;;;22.77;78.82
7157;BME280;3620;49.862;8.758;2022-07-23T07:35:33;99405.72;;;22.83;77.77
7157;BME280;3620;49.862;8.758;2022-07-23T07:37:59;99404.88;;;22.92;78.60
7157;BME280;3620;49.862;8.758;2022-07-23T07:40:28;99419.00;;;22.94;77.88
7157;BME280;3620;49.862;8.758;2022-07-23T07:42:54;99417.59;;;22.90;78.27
7157;BME280;3620;49.862;8.758;2022-07-23T07:45:23;99414.47;;;23.04;77.76
7157;BME280;3620;49.862;8.758;2022-07-23T07:47:50;99418.34;;;23.29;78.19
7157;BME280;3620;49.862;8.758;2022-07-23T07:50:18;99422.59;;;23.51;78.23
7157;BME280;3620;49.862;8.758;2022-07-23T07:52:45;99427.63;;;23.54;74.72
7157;BME280;3620;49.862;8.758;2022-07-23T07:55:12;99432.38;;;23.69;74.42
7157;BME280;3620;49.862;8.758;2022-07-23T07:57:40;99431.03;;;23.56;73.68
7157;BME280;3620;49.862;8.758;2022-07-23T08:00:09;99433.94;;;23.72;72.62
7157;BME280;3620;49.862;8.758;2022-07-23T08:02:41;99442.72;;;24.01;72.10
7157;BME280;3620;49.862;8.758;2022-07-23T08:05:08;99433.31;;;24.24;72.95
7157;BME280;3620;49.862;8.758;2022-07-23T08:07:35;99437.41;;;24.46;70.49
7157;BME280;3620;49.862;8.758;2022-07-23T08:10:03;99436.09;;;24.67;69.10
7157;BME280;3620;49.862;8.758;2022-07-23T08:12:38;99430.72;;;25.03;68.34
7157;BME280;3620;49.862;8.758;2022-07-23T08:15:07;99436.91;;;25.21;67.38
7157;BME280;3620;49.862;8.758;2022-07-23T08:17:34;99440.59;;;25.37;66.02
7157;BME280;3620;49.862;8.758;2022-07-23T08:20:02;99434.81;;;25.32;65.92
7157;BME280;3620;49.862;8.758;2022-07-23T08:22:42;99447.06;;;25.27;64.98
7157;BME280;3620;49.862;8.758;2022-07-23T08:25:09;99442.56;;;25.10;65.63
7157;BME280;3620;49.862;8.758;2022-07-23T08:27:36;99452.13;;;24.87;66.09
7157;BME280;3620;49.862;8.758;2022-07-23T08:30:03;99452.72;;;24.81;67.43
7157;BME280;3620;49.862;8.758;2022-07-23T08:32:32;99453.63;;;24.71;66.98
7157;BME280;3620;49.862;8.758;2022-07-23T08:34:58;99460.69;;;24.72;67.31
7157;BME280;3620;49.862;8.758;2022-07-23T08:37:25;99460.41;;;24.75;67.67
7157;BME280;3620;49.862;8.758;2022-07-23T08:39:52;99466.34;;;24.79;68.38
7157;BME280;3620;49.862;8.758;2022-07-23T08:42:20;99467.50;;;24.77;68.17
7157;BME280;3620;49.862;8.758;2022-07-23T08:44:47;99466.41;;;24.87;67.10
7157;BME280;3620;49.862;8.758;2022-07-23T08:47:14;99467.28;;;24.88;67.03
7157;BME280;3620;49.862;8.758;2022-07-23T08:49:43;99468.34;;;24.95;66.62
7157;BME280;3620;49.862;8.758;2022-07-23T08:52:10;99464.34;;;24.81;66.94
7157;BME280;3620;49.862;8.758;2022-07-23T08:54:38;99456.50;;;24.88;65.61
7157;BME280;3620;49.862;8.758;2022-07-23T08:57:04;99456.44;;;24.80;67.13
7157;BME280;3620;49.862;8.758;2022-07-23T08:59:31;99461.19;;;24.86;67.09
7157;BME280;3620;49.862;8.758;2022-07-23T09:01:58;99460.41;;;24.75;66.09
7157;BME280;3620;49.862;8.758;2022-07-23T09:04:26;99459.50;;;24.85;66.17
7157;BME280;3620;49.862;8.758;2022-07-23T09:06:54;99461.56;;;24.73;66.42
7157;BME280;3620;49.862;8.758;2022-07-23T09:09:21;99461.81;;;24.80;67.73
7157;BME280;3620;49.862;8.758;2022-07-23T09:12:02;99457.41;;;24.96;66.52
7157;BME280;3620;49.862;8.758;2022-07-23T09:14:37;99463.50;;;24.81;66.03
7157;BME280;3620;49.862;8.758;2022-07-23T09:17:11;99453.19;;;24.94;67.13
7157;BME280;3620;49.862;8.758;2022-07-23T09:19:39;99450.44;;;24.86;67.08
7157;BME280;3620;49.862;8.758;2022-07-23T09:22:21;99452.25;;;25.03;66.07
7157;BME280;3620;49.862;8.758;2022-07-23T09:25:06;99445.25;;;25.10;65.96
7157;BME280;3620;49.862;8.758;2022-07-23T09:28:00;99453.03;;;25.13;65.82
7157;BME280;3620;49.862;8.758;2022-07-23T09:30:30;99456.84;;;25.28;65.54
7157;BME280;3620;49.862;8.758;2022-07-23T09:33:04;99452.13;;;25.30;64.57
7157;BME280;3620;49.862;8.758;2022-07-23T09:35:47;99445.94;;;25.12;65.91
7157;BME280;3620;49.862;8.758;2022-07-23T09:38:16;99456.06;;;25.18;64.45
7157;BME280;3620;49.862;8.758;2022-07-23T09:40:44;99453.13;;;25.29;65.86
7157;BME280;3620;49.862;8.758;2022-07-23T09:43:11;99455.28;;;25.43;66.23
7157;BME280;3620;49.862;8.758;2022-07-23T09:45:38;99452.03;;;25.57;64.80
7157;BME280;3620;49.862;8.758;2022-07-23T09:48:13;99453.81;;;25.74;64.17
7157;BME280;3620;49.862;8.758;2022-07-23T09:50:41;99458.41;;;25.82;62.58
7157;BME280;3620;49.862;8.758;2022-07-23T09:53:08;99448.50;;;25.90;64.41
7157;BME280;3620;49.862;8.758;2022-07-23T09:55:37;99455.16;;;25.78;61.84
7157;BME280;3620;49.862;8.758;2022-07-23T09:58:05;99447.81;;;25.88;62.47
7157;BME280;3620;49.862;8.758;2022-07-23T10:00:34;99451.88;;;25.92;62.98
7157;BME280;3620;49.862;8.758;2022-07-23T10:03:03;99452.94;;;25.74;59.46
7157;BME280;3620;49.862;8.758;2022-07-23T10:05:31;99450.31;;;25.56;58.97
7157;BME280;3620;49.862;8.758;2022-07-23T10:08:00;99458.88;;;25.52;59.29
7157;BME280;3620;49.862;8.758;2022-07-23T10:10:28;99457.09;;;25.60;58.39
7157;BME280;3620;49.862;8.758;2022-07-23T10:12:57;99456.78;;;25.63;60.36
7157;BME280;3620;49.862;8.758;2022-07-23T10:15:46;99455.16;;;25.78;61.22
7157;BME280;3620;49.862;8.758;2022-07-23T10:18:13;99452.84;;;25.83;59.62
7157;BME280;3620;49.862;8.758;2022-07-23T10:20:40;99453.78;;;26.00;59.18
7157;BME280;3620;49.862;8.758;2022-07-23T10:23:14;99448.03;;;26.03;58.72
7157;BME280;3620;49.862;8.758;2022-07-23T10:25:54;99441.91;;;26.18;59.21
7157;BME280;3620;49.862;8.758;2022-07-23T10:28:42;99453.13;;;26.06;55.61
7157;BME280;3620;49.862;8.758;2022-07-23T10:31:20;99453.03;;;26.15;55.70
7157;BME280;3620;49.862;8.758;2022-07-23T10:34:04;99454.41;;;26.20;54.55
7157;BME280;3620;49.862;8.758;2022-07-23T10:36:42;99448.34;;;26.26;54.60
7157;BME280;3620;49.862;8.758;2022-07-23T10:39:14;99442.63;;;26.29;54.80
7157;BME280;3620;49.862;8.758;2022-07-23T10:41:42;99445.69;;;26.42;55.89
7157;BME280;3620;49.862;8.758;2022-07-23T10:44:12;99444.03;;;26.49;54.98
7157;BME280;3620;49.862;8.758;2022-07-23T10:46:54;99444.03;;;26.49;55.12
7157;BME280;3620;49.862;8.758;2022-07-23T10:49:28;99441.97;;;26.43;55.29
7157;BME280;3620;49.862;8.758;2022-07-23T10:52:21;99442.50;;;26.54;53.08
7157;BME280;3620;49.862;8.758;2022-07-23T10:54:50;99436.94;;;26.48;54.29
7157;BME280;3620;49.862;8.758;2022-07-23T10:57:18;99436.28;;;26.62;53.76
7157;BME280;3620;49.862;8.758;2022-07-23T11:03:04;99437.72;;;27.06;53.17
7157;BME280;3620;49.862;8.758;2022-07-23T11:05:40;99425.72;;;27.41;52.31
7157;BME280;3620;49.862;8.758;2022-07-23T11:08:13;99432.56;;;27.68;51.06
7157;BME280;3620;49.862;8.758;2022-07-23T11:10:50;99446.41;;;27.81;50.89
7157;BME280;3620;49.862;8.758;2022-07-23T11:13:42;99434.72;;;27.88;50.33
7157;BME280;3620;49.862;8.758;2022-07-23T11:16:16;99445.69;;;27.95;49.72
7157;BME280;3620;49.862;8.758;2022-07-23T11:19:09;99438.88;;;28.07;49.67
7157;BME280;3620;49.862;8.758;2022-07-23T11:21:46;99442.63;;;27.98;49.93
7157;BME280;3620;49.862;8.758;2022-07-23T11:24:15;99435.06;;;27.85;49.77
7157;BME280;3620;49.862;8.758;2022-07-23T11:26:51;99434.88;;;27.95;49.41
7157;BME280;3620;49.862;8.758;2022-07-23T11:29:47;99439.66;;;28.23;50.57
7157;BME280;3620;49.862;8.758;2022-07-23T11:32:38;99427.25;;;28.37;48.28
7157;BME280;3620;49.862;8.758;2022-07-23T11:35:26;99433.59;;;28.52;48.68
7157;BME280;3620;49.862;8.758;2022-07-23T11:37:54;99429.72;;;28.77;48.59
7157;BME280;3620;49.862;8.758;2022-07-23T11:40:29;99421.31;;;29.10;48.08
7157;BME280;3620;49.862;8.758;2022-07-23T11:42:57;99426.28;;;29.29;47.85
7157;BME280;3620;49.862;8.758;2022-07-23T11:45:30;99421.06;;;29.42;46.21
7157;BME280;3620;49.862;8.758;2022-07-23T11:47:57;99421.69;;;29.29;45.45
7157;BME280;3620;49.862;8.758;2022-07-23T11:50:26;99421.88;;;29.28;46.81
7157;BME280;3620;49.862;8.758;2022-07-23T11:52:53;99418.50;;;29.26;45.55
7157;BME280;3620;49.862;8.758;2022-07-23T11:55:20;99412.03;;;29.27;44.99
7157;BME280;3620;49.862;8.758;2022-07-23T11:57:47;99419.44;;;28.95;45.90
7157;BME280;3620;49.862;8.758;2022-07-23T12:00:19;99416.19;;;29.00;46.67
7157;BME280;3620;49.862;8.758;2022-07-23T12:02:47;99420.38;;;28.57;45.78
7157;BME280;3620;49.862;8.758;2022-07-23T12:05:16;99405.91;;;28.42;47.27
7157;BME280;3620;49.862;8.758;2022-07-23T12:07:46;99409.09;;;28.15;46.99
7157;BME280;3620;49.862;8.758;2022-07-23T12:10:16;99409.72;;;28.25;48.48
7157;BME280;3620;49.862;8.758;2022-07-23T12:12:45;99405.53;;;28.45;48.21
7157;BME280;3620;49.862;8.758;2022-07-23T12:15:13;99405.53;;;28.45;48.12
7157;BME280;3620;49.862;8.758;2022-07-23T12:17:42;99405.53;;;28.45;47.37
7157;BME280;3620;49.862;8.758;2022-07-23T12:20:12;99407.91;;;28.48;47.33
7157;BME280;3620;49.862;8.758;2022-07-23T12:22:41;99409.88;;;28.54;47.84
7157;BME280;3620;49.862;8.758;2022-07-23T12:25:11;99406.50;;;28.52;47.80
7157;BME280;3620;49.862;8.758;2022-07-23T12:27:38;99399.28;;;28.14;48.17
7157;BME280;3620;49.862;8.758;2022-07-23T12:30:16;99401.13;;;28.21;48.88
7157;BME280;3620;49.862;8.758;2022-07-23T12:32:43;99410.69;;;28.32;47.83
7157;BME280;3620;49.862;8.758;2022-07-23T12:35:11;99401.19;;;28.36;47.99
7157;BME280;3620;49.862;8.758;2022-07-23T12:37:40;99408.88;;;28.55;48.82
7157;BME280;3620;49.862;8.758;2022-07-23T12:40:23;99397.50;;;28.82;47.69
7157;BME280;3620;49.862;8.758;2022-07-23T12:42:52;99404.00;;;29.19;44.56
7157;BME280;3620;49.862;8.758;2022-07-23T12:45:19;99392.25;;;29.41;45.53
7157;BME280;3620;49.862;8.758;2022-07-23T12:48:01;99396.72;;;29.34;44.14
7157;BME280;3620;49.862;8.758;2022-07-23T12:50:34;99391.34;;;29.63;45.15
7157;BME280;3620;49.862;8.758;2022-07-23T12:53:08;99402.28;;;29.99;45.33
7157;BME280;3620;49.862;8.758;2022-07-23T12:55:38;99399.13;;;29.95;42.95
7157;BME280;3620;49.862;8.758;2022-07-23T12:58:07;99397.59;;;30.07;43.66
7157;BME280;3620;49.862;8.758;2022-07-23T13:01:06;99403.69;;;30.09;43.91
7157;BME280;3620;49.862;8.758;2022-07-23T13:03:36;99397.81;;;30.06;43.40
7157;BME280;3620;49.862;8.758;2022-07-23T13:06:04;99406.34;;;29.88;43.76
7157;BME280;3620;49.862;8.758;2022-07-23T13:08:32;99405.22;;;29.97;43.65
7157;BME280;3620;49.862;8.758;2022-07-23T13:11:02;99404.81;;;30.00;43.60
7157;BME280;3620;49.862;8.758;2022-07-23T13:13:32;99416.59;;;30.07;43.12
7157;BME280;3620;49.862;8.758;2022-07-23T13:15:59;99415.31;;;30.03;43.26
7157;BME280;3620;49.862;8.758;2022-07-23T13:18:27;99415.09;;;30.19;43.24
7157;BME280;3620;49.862;8.758;2022-07-23T13:20:54;99413.72;;;30.09;41.96
7157;BME280;3620;49.862;8.758;2022-07-23T13:23:22;99412.88;;;30.08;42.03
7157;BME280;3620;49.862;8.758;2022-07-23T13:25:48;99416.44;;;29.94;43.63
7157;BME280;3620;49.862;8.758;2022-07-23T13:28:17;99415.59;;;29.64;43.60
7157;BME280;3620;49.862;8.758;2022-07-23T13:30:45;99407.56;;;29.86;43.37
7157;BME280;3620;49.862;8.758;2022-07-23T13:33:15;99406.28;;;29.73;43.15
7157;BME280;3620;49.862;8.758;2022-07-23T13:35:42;99407.84;;;29.91;44.28